createdAt,value
2022-10-08T00:01:51.688Z,100.00
2022-10-08T00:04:18.225Z,100.00
2022-10-08T00:06:44.706Z,100.00
2022-10-08T00:09:11.245Z,100.00
2022-10-08T00:11:39.755Z,100.00
2022-10-08T00:14:07.178Z,100.00
2022-10-08T00:16:39.005Z,100.00
2022-10-08T00:19:12.443Z,100.00
2022-10-08T00:21:40.264Z,100.00
2022-10-08T00:24:07.943Z,100.00
2022-10-08T00:26:41.147Z,100.00
2022-10-08T00:29:12.472Z,100.00
2022-10-08T00:31:41.154Z,100.00
2022-10-08T00:34:10.845Z,100.00
2022-10-08T00:36:38.351Z,100.00
2022-10-08T00:39:09.763Z,100.00
2022-10-08T00:41:38.734Z,100.00
2022-10-08T00:44:42.798Z,100.00
2022-10-08T00:47:25.065Z,100.00
2022-10-08T00:49:54.672Z,100.00
2022-10-08T00:52:21.699Z,100.00
2022-10-08T00:54:50.239Z,100.00
2022-10-08T00:57:17.470Z,100.00
2022-10-08T00:59:43.918Z,100.00
2022-10-08T01:02:10.890Z,100.00
2022-10-08T01:04:38.272Z,100.00
2022-10-08T01:07:18.874Z,100.00
2022-10-08T01:10:06.018Z,100.00
2022-10-08T01:12:50.748Z,100.00
2022-10-08T01:15:41.096Z,100.00
2022-10-08T01:18:22.595Z,100.00
2022-10-08T01:21:05.099Z,100.00
2022-10-08T01:23:55.320Z,100.00
2022-10-08T01:26:46.496Z,100.00
2022-10-08T01:29:24.831Z,100.00
2022-10-08T01:31:54.817Z,100.00
2022-10-08T01:34:34.516Z,100.00
2022-10-08T01:37:01.251Z,100.00
2022-10-08T01:39:31.272Z,100.00
2022-10-08T01:41:59.476Z,100.00
2022-10-08T01:44:39.717Z,100.00
2022-10-08T01:47:09.353Z,100.00
2022-10-08T01:49:43.379Z,100.00
2022-10-08T01:52:18.687Z,100.00
2022-10-08T01:54:48.204Z,100.00
2022-10-08T01:57:14.759Z,100.00
2022-10-08T01:59:46.348Z,100.00
2022-10-08T02:02:15.200Z,100.00
2022-10-08T02:04:41.796Z,100.00
2022-10-08T02:07:16.349Z,100.00
2022-10-08T02:09:45.474Z,100.00
2022-10-08T02:12:12.485Z,100.00
2022-10-08T02:14:43.862Z,100.00
2022-10-08T02:17:16.326Z,100.00
2022-10-08T02:19:52.891Z,100.00
2022-10-08T02:22:23.367Z,100.00
2022-10-08T02:24:53.437Z,100.00
2022-10-08T02:27:26.301Z,100.00
2022-10-08T02:30:01.559Z,100.00
2022-10-08T02:32:34.104Z,100.00
2022-10-08T02:35:12.647Z,100.00
2022-10-08T02:37:45.570Z,100.00
2022-10-08T02:40:14.176Z,100.00
2022-10-08T02:42:57.043Z,100.00
2022-10-08T02:45:28.211Z,100.00
2022-10-08T02:47:59.283Z,100.00
2022-10-08T02:50:27.561Z,100.00
2022-10-08T02:52:54.564Z,100.00
2022-10-08T02:55:59.462Z,100.00
2022-10-08T02:58:26.304Z,100.00
2022-10-08T03:01:09.810Z,100.00
2022-10-08T03:03:39.723Z,100.00
2022-10-08T03:06:08.603Z,100.00
2022-10-08T03:08:37.353Z,100.00
2022-10-08T03:11:06.554Z,100.00
2022-10-08T03:13:37.630Z,100.00
2022-10-08T03:16:07.209Z,100.00
2022-10-08T03:18:33.955Z,100.00
2022-10-08T03:21:13.112Z,100.00
2022-10-08T03:23:39.706Z,100.00
2022-10-08T03:26:06.227Z,100.00
2022-10-08T03:28:32.711Z,100.00
2022-10-08T03:31:03.982Z,100.00
2022-10-08T03:33:30.462Z,100.00
2022-10-08T03:35:58.694Z,100.00
2022-10-08T03:38:25.229Z,100.00
2022-10-08T03:40:57.035Z,100.00
2022-10-08T03:43:23.655Z,100.00
2022-10-08T03:45:54.160Z,100.00
2022-10-08T03:48:22.051Z,100.00
2022-10-08T03:51:02.611Z,100.00
2022-10-08T03:53:33.076Z,100.00
2022-10-08T03:56:04.323Z,100.00
2022-10-08T03:58:31.125Z,100.00
2022-10-08T04:00:58.288Z,100.00
2022-10-08T04:03:25.510Z,100.00
2022-10-08T04:05:52.365Z,100.00
2022-10-08T04:08:18.918Z,100.00
2022-10-08T04:10:45.659Z,100.00
2022-10-08T04:13:12.940Z,100.00
2022-10-08T04:15:39.782Z,100.00
2022-10-08T04:18:07.324Z,100.00
2022-10-08T04:20:34.389Z,100.00
2022-10-08T04:23:01.096Z,100.00
2022-10-08T04:25:27.663Z,100.00
2022-10-08T04:27:54.111Z,100.00
2022-10-08T04:30:20.636Z,100.00
2022-10-08T04:32:47.392Z,100.00
2022-10-08T04:35:14.026Z,100.00
2022-10-08T04:37:40.488Z,100.00
2022-10-08T04:40:07.522Z,100.00
2022-10-08T04:42:34.086Z,100.00
2022-10-08T04:45:00.543Z,100.00
2022-10-08T04:47:26.989Z,100.00
2022-10-08T04:49:53.447Z,100.00
2022-10-08T04:52:20.568Z,100.00
2022-10-08T04:54:47.064Z,100.00
2022-10-08T04:57:13.523Z,100.00
2022-10-08T04:59:53.899Z,100.00
2022-10-08T05:02:26.205Z,100.00
2022-10-08T05:04:52.778Z,100.00
2022-10-08T05:07:19.227Z,100.00
2022-10-08T05:09:45.685Z,100.00
2022-10-08T05:12:12.315Z,100.00
2022-10-08T05:14:38.792Z,100.00
2022-10-08T05:17:05.247Z,100.00
2022-10-08T05:19:31.750Z,100.00
2022-10-08T05:21:58.203Z,100.00
2022-10-08T05:24:25.519Z,100.00
2022-10-08T05:26:59.641Z,100.00
2022-10-08T05:29:26.157Z,100.00
2022-10-08T05:31:52.712Z,100.00
2022-10-08T05:34:19.252Z,100.00
2022-10-08T05:36:45.773Z,100.00
2022-10-08T05:39:12.275Z,100.00
2022-10-08T05:41:39.071Z,100.00
2022-10-08T05:44:07.880Z,100.00
2022-10-08T05:46:35.806Z,100.00
2022-10-08T05:49:05.570Z,100.00
2022-10-08T05:51:32.219Z,100.00
2022-10-08T05:53:59.805Z,100.00
2022-10-08T05:56:27.523Z,100.00
2022-10-08T05:58:54.524Z,100.00
2022-10-08T06:01:29.510Z,100.00
2022-10-08T06:04:06.975Z,100.00
2022-10-08T06:06:35.806Z,100.00
2022-10-08T06:09:02.511Z,100.00
2022-10-08T06:11:31.073Z,100.00
2022-10-08T06:13:58.766Z,100.00
2022-10-08T06:16:25.944Z,100.00
2022-10-08T06:18:52.708Z,100.00
2022-10-08T06:21:21.730Z,100.00
2022-10-08T06:23:53.071Z,100.00
2022-10-08T06:26:22.107Z,100.00
2022-10-08T06:28:49.903Z,100.00
2022-10-08T06:31:16.570Z,100.00
2022-10-08T06:33:46.370Z,100.00
2022-10-08T06:36:20.829Z,100.00
2022-10-08T06:38:51.734Z,100.00
2022-10-08T06:41:18.699Z,100.00
2022-10-08T06:43:45.598Z,100.00
2022-10-08T06:46:12.072Z,100.00
2022-10-08T06:48:38.726Z,100.00
2022-10-08T06:51:14.088Z,100.00
2022-10-08T06:53:41.492Z,100.00
2022-10-08T06:56:18.036Z,100.00
2022-10-08T06:58:45.027Z,100.00
2022-10-08T07:01:30.462Z,100.00
2022-10-08T07:04:01.373Z,100.00
2022-10-08T07:06:29.096Z,100.00
2022-10-08T07:09:00.007Z,100.00
2022-10-08T07:11:27.196Z,100.00
2022-10-08T07:13:56.902Z,100.00
2022-10-08T07:16:26.470Z,100.00
2022-10-08T07:18:55.100Z,100.00
2022-10-08T07:21:22.267Z,100.00
2022-10-08T07:23:48.922Z,100.00
2022-10-08T07:26:17.992Z,100.00
2022-10-08T07:28:50.827Z,100.00
2022-10-08T07:31:20.162Z,100.00
2022-10-08T07:33:46.798Z,100.00
2022-10-08T07:36:20.905Z,100.00
2022-10-08T07:38:48.118Z,100.00
2022-10-08T07:41:14.647Z,100.00
2022-10-08T07:43:41.366Z,100.00
2022-10-08T07:46:08.777Z,100.00
2022-10-08T07:48:36.129Z,100.00
2022-10-08T07:51:10.654Z,100.00
2022-10-08T07:53:37.594Z,100.00
2022-10-08T07:56:05.377Z,100.00
2022-10-08T07:58:31.898Z,100.00
2022-10-08T08:01:02.110Z,100.00
2022-10-08T08:03:28.846Z,100.00
2022-10-08T08:06:01.070Z,100.00
2022-10-08T08:08:27.766Z,100.00
2022-10-08T08:11:01.834Z,100.00
2022-10-08T08:13:34.287Z,100.00
2022-10-08T08:16:12.563Z,100.00
2022-10-08T08:18:41.862Z,100.00
2022-10-08T08:21:29.455Z,100.00
2022-10-08T08:23:57.180Z,100.00
2022-10-08T08:26:32.669Z,100.00
2022-10-08T08:29:01.583Z,100.00
2022-10-08T08:31:30.564Z,100.00
2022-10-08T08:33:59.608Z,100.00
2022-10-08T08:36:37.353Z,100.00
2022-10-08T08:39:04.891Z,100.00
2022-10-08T08:41:51.259Z,100.00
2022-10-08T08:44:21.537Z,98.79
2022-10-08T08:46:59.210Z,98.16
2022-10-08T08:49:37.697Z,98.29
2022-10-08T08:52:05.190Z,97.12
2022-10-08T08:54:33.214Z,97.20
2022-10-08T08:57:21.667Z,97.82
2022-10-08T08:59:49.519Z,97.16
2022-10-08T09:02:26.438Z,96.10
2022-10-08T09:05:02.579Z,96.32
2022-10-08T09:07:39.032Z,94.74
2022-10-08T09:10:09.472Z,93.44
2022-10-08T09:12:37.852Z,91.94
2022-10-08T09:15:06.658Z,90.24
2022-10-08T09:17:36.722Z,90.10
2022-10-08T09:20:03.704Z,89.84
2022-10-08T09:22:34.718Z,90.37
2022-10-08T09:25:06.078Z,90.74
2022-10-08T09:27:56.414Z,90.77
2022-10-08T09:30:40.531Z,90.28
2022-10-08T09:33:13.472Z,88.58
2022-10-08T09:35:48.565Z,88.44
2022-10-08T09:38:26.631Z,88.23
2022-10-08T09:41:03.107Z,87.58
2022-10-08T09:43:30.194Z,87.17
2022-10-08T09:45:58.028Z,87.54
2022-10-08T09:48:29.142Z,88.41
2022-10-08T09:51:17.100Z,88.65
2022-10-08T09:53:58.895Z,88.79
2022-10-08T09:56:28.070Z,89.30
2022-10-08T09:59:00.838Z,90.94
2022-10-08T10:01:27.640Z,91.14
2022-10-08T10:03:56.490Z,90.65
2022-10-08T10:06:38.833Z,89.96
2022-10-08T10:09:11.333Z,90.17
2022-10-08T10:11:39.053Z,90.50
2022-10-08T10:14:25.590Z,91.08
2022-10-08T10:17:14.746Z,90.33
2022-10-08T10:19:53.365Z,90.98
2022-10-08T10:22:25.454Z,89.85
2022-10-08T10:25:00.555Z,89.78
2022-10-08T10:27:37.052Z,88.23
2022-10-08T10:30:24.809Z,88.13
2022-10-08T10:32:59.190Z,86.43
2022-10-08T10:35:28.325Z,84.43
2022-10-08T10:38:13.716Z,81.58
2022-10-08T10:40:45.132Z,78.71
2022-10-08T10:43:42.706Z,78.52
2022-10-08T10:46:09.139Z,77.21
2022-10-08T10:48:35.661Z,77.00
2022-10-08T10:51:32.501Z,76.44
2022-10-08T10:54:03.834Z,77.00
2022-10-08T10:56:39.066Z,77.24
2022-10-08T10:59:31.400Z,78.63
2022-10-08T11:02:27.187Z,77.96
2022-10-08T11:05:05.234Z,77.63
2022-10-08T11:07:52.763Z,78.01
2022-10-08T11:10:34.598Z,78.13
2022-10-08T11:13:24.401Z,78.65
2022-10-08T11:15:50.806Z,78.03
2022-10-08T11:18:54.351Z,77.87
2022-10-08T11:21:58.594Z,75.76
2022-10-08T11:25:00.020Z,75.07
2022-10-08T11:27:42.429Z,74.63
2022-10-08T11:30:20.906Z,72.77
2022-10-08T11:32:53.096Z,73.52
2022-10-08T11:35:31.769Z,73.92
2022-10-08T11:38:29.036Z,73.38
2022-10-08T11:40:57.934Z,76.09
2022-10-08T11:43:41.413Z,78.56
2022-10-08T11:46:31.212Z,80.27
2022-10-08T11:48:58.632Z,80.27
2022-10-08T11:51:24.977Z,80.69
2022-10-08T11:54:00.364Z,81.31
2022-10-08T11:56:26.855Z,81.08
2022-10-08T11:58:54.623Z,80.32
2022-10-08T12:01:22.143Z,79.59
2022-10-08T12:04:09.996Z,78.22
2022-10-08T12:06:36.629Z,78.52
2022-10-08T12:09:05.893Z,77.92
2022-10-08T12:11:32.250Z,76.62
2022-10-08T12:14:10.763Z,75.90
2022-10-08T12:16:55.485Z,76.11
2022-10-08T12:19:34.263Z,76.16
2022-10-08T12:22:04.608Z,77.15
2022-10-08T12:24:37.170Z,77.29
2022-10-08T12:27:21.862Z,75.48
2022-10-08T12:29:54.997Z,74.23
2022-10-08T12:32:29.357Z,73.65
2022-10-08T12:34:56.338Z,73.95
2022-10-08T12:37:52.044Z,76.48
2022-10-08T12:40:30.648Z,77.99
2022-10-08T12:43:12.792Z,79.68
2022-10-08T12:45:48.393Z,79.91
2022-10-08T12:48:35.261Z,80.91
2022-10-08T12:51:08.655Z,82.18
2022-10-08T12:53:35.183Z,81.44
2022-10-08T12:56:01.965Z,79.48
2022-10-08T12:58:33.718Z,77.76
2022-10-08T13:01:03.319Z,75.32
2022-10-08T13:03:29.903Z,73.19
2022-10-08T13:05:57.626Z,71.02
2022-10-08T13:08:37.205Z,70.47
2022-10-08T13:11:14.641Z,67.99
2022-10-08T13:13:41.009Z,67.62
2022-10-08T13:16:15.488Z,69.26
2022-10-08T13:18:48.132Z,70.27
2022-10-08T13:21:31.136Z,69.12
2022-10-08T13:24:25.336Z,67.60
2022-10-08T13:26:52.263Z,66.47
2022-10-08T13:29:21.798Z,64.34
2022-10-08T13:31:58.625Z,63.87
2022-10-08T13:34:29.151Z,63.67
2022-10-08T13:36:58.310Z,63.24
2022-10-08T13:39:27.722Z,62.11
2022-10-08T13:42:03.213Z,61.06
2022-10-08T13:44:29.830Z,59.60
2022-10-08T13:47:00.093Z,60.19
2022-10-08T13:49:31.946Z,60.89
2022-10-08T13:51:58.870Z,61.77
2022-10-08T13:54:30.456Z,60.10
2022-10-08T13:56:57.158Z,58.92
2022-10-08T13:59:29.566Z,58.19
2022-10-08T14:01:57.128Z,57.64
2022-10-08T14:04:23.679Z,58.03
2022-10-08T14:06:51.398Z,58.90
2022-10-08T14:09:19.623Z,60.08
2022-10-08T14:11:47.720Z,59.77
2022-10-08T14:14:14.881Z,59.85
2022-10-08T14:16:42.443Z,60.56
2022-10-08T14:19:12.141Z,60.36
2022-10-08T14:21:39.849Z,62.22
2022-10-08T14:24:06.847Z,61.72
2022-10-08T14:26:34.063Z,62.78
2022-10-08T14:29:00.653Z,64.27
2022-10-08T14:31:28.149Z,65.15
2022-10-08T14:33:55.478Z,65.71
2022-10-08T14:36:34.352Z,67.31
2022-10-08T14:39:02.335Z,68.07
2022-10-08T14:44:16.760Z,70.45
2022-10-08T14:46:46.079Z,69.26
2022-10-08T14:49:12.806Z,67.68
2022-10-08T14:51:39.700Z,66.90
2022-10-08T14:54:08.228Z,66.29
2022-10-08T14:56:35.700Z,66.16
2022-10-08T14:59:02.267Z,65.10
2022-10-08T15:01:28.887Z,66.36
2022-10-08T15:03:55.432Z,66.79
2022-10-08T15:06:22.088Z,67.38
2022-10-08T15:08:50.651Z,67.61
2022-10-08T15:11:18.274Z,68.35
2022-10-08T15:13:44.781Z,69.47
2022-10-08T15:16:12.212Z,70.14
2022-10-08T15:18:38.994Z,70.76
2022-10-08T15:21:06.264Z,71.02
2022-10-08T15:23:32.992Z,71.85
2022-10-08T15:26:01.811Z,72.81
2022-10-08T15:28:29.260Z,72.94
2022-10-08T15:31:11.890Z,73.70
2022-10-08T15:33:39.887Z,74.36
2022-10-08T15:36:36.938Z,75.52
2022-10-08T15:39:15.055Z,76.28
2022-10-08T15:41:43.609Z,76.30
2022-10-08T15:44:20.491Z,76.54
2022-10-08T15:46:48.984Z,77.14
2022-10-08T15:49:15.731Z,77.52
2022-10-08T15:51:42.576Z,77.67
2022-10-08T15:54:09.111Z,78.28
2022-10-08T15:56:35.594Z,79.01
2022-10-08T15:59:02.273Z,79.24
2022-10-08T16:01:29.998Z,79.30
2022-10-08T16:03:57.231Z,80.01
2022-10-08T16:06:29.887Z,80.61
2022-10-08T16:08:57.986Z,80.97
2022-10-08T16:11:26.835Z,80.79
2022-10-08T16:14:03.833Z,80.95
2022-10-08T16:16:30.839Z,80.68
2022-10-08T16:18:59.684Z,80.36
2022-10-08T16:21:28.125Z,80.82
2022-10-08T16:23:55.079Z,80.40
2022-10-08T16:26:22.281Z,80.78
2022-10-08T16:28:50.787Z,80.84
2022-10-08T16:31:18.096Z,80.99
2022-10-08T16:33:45.214Z,81.61
2022-10-08T16:36:12.237Z,81.23
2022-10-08T16:38:40.162Z,81.83
2022-10-08T16:41:14.744Z,82.44
2022-10-08T16:43:42.633Z,83.05
2022-10-08T16:46:20.959Z,83.76
2022-10-08T16:49:05.615Z,84.03
2022-10-08T16:51:34.860Z,84.28
2022-10-08T16:54:02.494Z,85.02
2022-10-08T16:56:31.686Z,84.62
2022-10-08T16:59:00.961Z,85.32
2022-10-08T17:01:27.853Z,85.10
2022-10-08T17:03:54.692Z,85.33
2022-10-08T17:06:22.596Z,85.76
2022-10-08T17:08:50.537Z,85.42
2022-10-08T17:11:18.523Z,86.10
2022-10-08T17:13:47.306Z,86.48
2022-10-08T17:16:14.630Z,86.83
2022-10-08T17:18:44.180Z,86.94
2022-10-08T17:21:12.497Z,86.80
2022-10-08T17:23:39.107Z,87.94
2022-10-08T17:26:11.239Z,87.94
2022-10-08T17:28:39.881Z,88.08
2022-10-08T17:31:08.440Z,88.47
2022-10-08T17:33:36.228Z,87.93
2022-10-08T17:36:08.393Z,88.77
2022-10-08T17:38:35.991Z,87.63
2022-10-08T17:41:13.390Z,88.37
2022-10-08T17:43:39.958Z,87.71
2022-10-08T17:46:10.278Z,87.60
2022-10-08T17:48:36.834Z,88.21
2022-10-08T17:51:05.931Z,88.04
2022-10-08T17:53:32.754Z,87.40
2022-10-08T17:56:00.620Z,86.92
2022-10-08T17:58:27.225Z,87.13
2022-10-08T18:01:01.327Z,87.35
2022-10-08T18:03:27.855Z,86.62
2022-10-08T18:05:58.323Z,86.69
2022-10-08T18:08:24.778Z,86.76
2022-10-08T18:10:53.830Z,87.19
2022-10-08T18:13:20.332Z,88.39
2022-10-08T18:15:46.973Z,88.63
2022-10-08T18:18:13.940Z,89.80
2022-10-08T18:20:40.435Z,89.91
2022-10-08T18:23:08.339Z,90.38
2022-10-08T18:25:35.719Z,91.02
2022-10-08T18:28:02.592Z,91.19
2022-10-08T18:30:29.355Z,91.27
2022-10-08T18:32:57.062Z,91.75
2022-10-08T18:35:24.498Z,92.12
2022-10-08T18:37:51.442Z,92.73
2022-10-08T18:40:17.955Z,93.24
2022-10-08T18:42:44.855Z,93.31
2022-10-08T18:45:11.523Z,93.14
2022-10-08T18:47:37.999Z,92.92
2022-10-08T18:50:09.134Z,93.16
2022-10-08T18:52:35.692Z,93.68
2022-10-08T18:55:02.352Z,93.46
2022-10-08T18:57:28.979Z,93.66
2022-10-08T18:59:55.428Z,93.20
2022-10-08T19:02:22.111Z,93.88
2022-10-08T19:04:49.348Z,94.50
2022-10-08T19:07:15.871Z,94.35
2022-10-08T19:09:42.437Z,93.89
2022-10-08T19:12:08.938Z,94.17
2022-10-08T19:14:35.389Z,93.99
2022-10-08T19:17:02.631Z,94.61
2022-10-08T19:19:29.438Z,95.54
2022-10-08T19:21:56.249Z,95.70
2022-10-08T19:24:24.753Z,96.74
2022-10-08T19:26:52.123Z,97.13
2022-10-08T19:29:28.733Z,97.53
2022-10-08T19:31:55.590Z,98.41
2022-10-08T19:34:24.688Z,98.79
2022-10-08T19:36:51.537Z,99.06
2022-10-08T19:39:20.456Z,99.53
2022-10-08T19:41:47.067Z,99.94
2022-10-08T19:44:14.330Z,99.75
2022-10-08T19:46:40.893Z,99.37
2022-10-08T19:49:08.138Z,98.78
2022-10-08T19:51:34.953Z,99.00
2022-10-08T19:54:01.814Z,99.10
2022-10-08T19:56:28.830Z,99.97
2022-10-08T19:58:55.653Z,100.00
2022-10-08T20:01:25.304Z,100.00
2022-10-08T20:03:54.732Z,100.00
2022-10-08T20:06:24.854Z,100.00
2022-10-08T20:08:56.652Z,100.00
2022-10-08T20:11:23.859Z,100.00
2022-10-08T20:13:52.051Z,100.00
2022-10-08T20:16:21.684Z,100.00
2022-10-08T20:18:53.768Z,100.00
2022-10-08T20:21:21.883Z,100.00
2022-10-08T20:23:48.784Z,100.00
2022-10-08T20:26:20.015Z,100.00
2022-10-08T20:28:48.553Z,100.00
2022-10-08T20:31:18.094Z,100.00
2022-10-08T20:33:45.647Z,100.00
2022-10-08T20:36:16.804Z,100.00
2022-10-08T20:38:43.976Z,100.00
2022-10-08T20:41:10.603Z,100.00
2022-10-08T20:43:37.979Z,100.00
2022-10-08T20:46:09.258Z,100.00
2022-10-08T20:48:38.814Z,100.00
2022-10-08T20:51:10.032Z,100.00
2022-10-08T20:53:36.983Z,100.00
2022-10-08T20:56:11.250Z,100.00
2022-10-08T20:58:37.815Z,100.00
2022-10-08T21:01:06.706Z,100.00
2022-10-08T21:03:33.943Z,100.00
2022-10-08T21:06:01.402Z,100.00
2022-10-08T21:08:27.956Z,100.00
2022-10-08T21:10:54.449Z,100.00
2022-10-08T21:13:21.330Z,100.00
2022-10-08T21:15:47.960Z,100.00
2022-10-08T21:18:16.114Z,100.00
2022-10-08T21:20:42.877Z,100.00
2022-10-08T21:23:09.395Z,100.00
2022-10-08T21:25:36.020Z,100.00
2022-10-08T21:28:02.606Z,100.00
2022-10-08T21:30:29.390Z,100.00
2022-10-08T21:32:55.902Z,100.00
2022-10-08T21:35:22.391Z,100.00
2022-10-08T21:37:48.861Z,100.00
2022-10-08T21:40:15.376Z,100.00
2022-10-08T21:42:41.916Z,100.00
2022-10-08T21:45:08.979Z,100.00
2022-10-08T21:47:35.429Z,100.00
2022-10-08T21:50:01.938Z,100.00
2022-10-08T21:52:28.840Z,100.00
2022-10-08T21:54:55.300Z,100.00
2022-10-08T21:57:21.844Z,100.00
2022-10-08T21:59:48.305Z,100.00
2022-10-08T22:02:14.896Z,100.00
2022-10-08T22:04:41.473Z,100.00
2022-10-08T22:07:08.026Z,100.00
2022-10-08T22:09:42.198Z,100.00
2022-10-08T22:12:09.091Z,100.00
2022-10-08T22:14:35.570Z,100.00
2022-10-08T22:17:02.024Z,100.00
2022-10-08T22:19:28.505Z,100.00
2022-10-08T22:21:54.969Z,100.00
2022-10-08T22:24:21.470Z,100.00
2022-10-08T22:26:48.010Z,100.00
2022-10-08T22:29:14.832Z,100.00
2022-10-08T22:31:41.393Z,100.00
2022-10-08T22:34:08.038Z,100.00
2022-10-08T22:36:38.444Z,100.00
2022-10-08T22:39:05.020Z,100.00
2022-10-08T22:41:32.202Z,100.00
2022-10-08T22:43:59.513Z,100.00
2022-10-08T22:46:28.538Z,100.00
2022-10-08T22:49:07.153Z,100.00
2022-10-08T22:51:33.964Z,100.00
2022-10-08T22:54:00.596Z,100.00
2022-10-08T22:56:29.516Z,100.00
2022-10-08T22:58:56.335Z,100.00
2022-10-08T23:01:24.232Z,100.00
2022-10-08T23:03:50.935Z,100.00
2022-10-08T23:06:19.720Z,100.00
2022-10-08T23:08:51.793Z,100.00
2022-10-08T23:11:19.045Z,100.00
2022-10-08T23:13:50.841Z,100.00
2022-10-08T23:16:17.550Z,100.00
2022-10-08T23:18:45.983Z,100.00
2022-10-08T23:21:15.536Z,100.00
2022-10-08T23:23:43.379Z,100.00
2022-10-08T23:26:10.033Z,100.00
2022-10-08T23:28:37.494Z,100.00
2022-10-08T23:31:15.554Z,100.00
2022-10-08T23:33:44.008Z,100.00
2022-10-08T23:36:13.139Z,100.00
2022-10-08T23:38:39.715Z,100.00
2022-10-08T23:41:07.890Z,100.00
2022-10-08T23:43:36.284Z,100.00
2022-10-08T23:46:03.503Z,100.00
2022-10-08T23:48:30.786Z,100.00
2022-10-08T23:50:57.435Z,100.00
2022-10-08T23:53:23.958Z,100.00
2022-10-08T23:55:50.468Z,100.00
2022-10-08T23:58:19.710Z,100.00
